sensor_id;sensor_type;location;lat;lon;timestamp;pressure;altitude;pressure_sealevel;temperature
24740;BMP280;45234;48.148;17.128;2024-03-08T00:02:15;100322.47;;;6.08
24740;BMP280;45234;48.148;17.128;2024-03-08T00:04:42;100318.47;;;6.13
24740;BMP280;45234;48.148;17.128;2024-03-08T00:07:09;100326.34;;;6.12
24740;BMP280;45234;48.148;17.128;2024-03-08T00:09:36;100318.78;;;6.10
24740;BMP280;45234;48.148;17.128;2024-03-08T00:12:03;100318.09;;;6.00
24740;BMP280;45234;48.148;17.128;2024-03-08T00:14:30;100318.16;;;5.90
24740;BMP280;45234;48.148;17.128;2024-03-08T00:16:57;100320.56;;;5.92
24740;BMP280;45234;48.148;17.128;2024-03-08T00:19:24;100313.81;;;5.91
24740;BMP280;45234;48.148;17.128;2024-03-08T00:21:51;100315.78;;;5.89
24740;BMP280;45234;48.148;17.128;2024-03-08T00:24:17;100322.50;;;5.90
24740;BMP280;45234;48.148;17.128;2024-03-08T00:26:44;100317.69;;;5.87
24740;BMP280;45234;48.148;17.128;2024-03-08T00:29:11;100322.50;;;5.90
24740;BMP280;45234;48.148;17.128;2024-03-08T00:31:39;100326.69;;;5.91
24740;BMP280;45234;48.148;17.128;2024-03-08T00:34:06;100320.00;;;5.98
24740;BMP280;45234;48.148;17.128;2024-03-08T00:36:33;100319.09;;;6.07
24740;BMP280;45234;48.148;17.128;2024-03-08T00:39:00;100318.66;;;5.94
24740;BMP280;45234;48.148;17.128;2024-03-08T00:41:28;100309.31;;;5.85
24740;BMP280;45234;48.148;17.128;2024-03-08T00:43:55;100311.19;;;5.83
24740;BMP280;45234;48.148;17.128;2024-03-08T00:46:21;100316.81;;;5.78
24740;BMP280;45234;48.148;17.128;2024-03-08T00:48:48;100309.50;;;5.65
24740;BMP280;45234;48.148;17.128;2024-03-08T00:51:16;100308.84;;;5.63
24740;BMP280;45234;48.148;17.128;2024-03-08T00:53:43;100308.00;;;5.63
24740;BMP280;45234;48.148;17.128;2024-03-08T00:56:10;100302.72;;;5.64
24740;BMP280;45234;48.148;17.128;2024-03-08T00:58:37;100307.34;;;5.61
24740;BMP280;45234;48.148;17.128;2024-03-08T01:01:04;100297.59;;;5.64
24740;BMP280;45234;48.148;17.128;2024-03-08T01:03:31;100297.94;;;5.69
24740;BMP280;45234;48.148;17.128;2024-03-08T01:05:59;100303.59;;;5.73
24740;BMP280;45234;48.148;17.128;2024-03-08T01:08:28;100299.25;;;5.73
24740;BMP280;45234;48.148;17.128;2024-03-08T01:10:55;100305.66;;;5.69
24740;BMP280;45234;48.148;17.128;2024-03-08T01:13:22;100297.78;;;5.71
24740;BMP280;45234;48.148;17.128;2024-03-08T01:15:48;100296.38;;;5.77
24740;BMP280;45234;48.148;17.128;2024-03-08T01:18:15;100294.69;;;5.85
24740;BMP280;45234;48.148;17.128;2024-03-08T01:20:42;100291.63;;;5.90
24740;BMP280;45234;48.148;17.128;2024-03-08T01:23:09;100293.47;;;5.97
24740;BMP280;45234;48.148;17.128;2024-03-08T01:25:36;100295.00;;;5.90
24740;BMP280;45234;48.148;17.128;2024-03-08T01:28:03;100284.47;;;5.76
24740;BMP280;45234;48.148;17.128;2024-03-08T01:30:31;100287.41;;;5.81
24740;BMP280;45234;48.148;17.128;2024-03-08T01:32:59;100283.16;;;5.71
24740;BMP280;45234;48.148;17.128;2024-03-08T01:35:26;100286.41;;;5.73
24740;BMP280;45234;48.148;17.128;2024-03-08T01:37:54;100283.94;;;5.64
24740;BMP280;45234;48.148;17.128;2024-03-08T01:40:21;100273.75;;;5.62
24740;BMP280;45234;48.148;17.128;2024-03-08T01:42:48;100273.63;;;5.64
24740;BMP280;45234;48.148;17.128;2024-03-08T01:45:14;100278.34;;;5.68
24740;BMP280;45234;48.148;17.128;2024-03-08T01:47:42;100282.59;;;5.60
24740;BMP280;45234;48.148;17.128;2024-03-08T01:50:09;100276.34;;;5.62
24740;BMP280;45234;48.148;17.128;2024-03-08T01:52:38;100276.72;;;5.67
24740;BMP280;45234;48.148;17.128;2024-03-08T01:55:06;100274.16;;;5.67
24740;BMP280;45234;48.148;17.128;2024-03-08T01:57:35;100278.34;;;5.68
24740;BMP280;45234;48.148;17.128;2024-03-08T02:00:05;100275.59;;;5.70
24740;BMP280;45234;48.148;17.128;2024-03-08T02:02:33;100275.31;;;5.73
24740;BMP280;45234;48.148;17.128;2024-03-08T02:05:03;100278.69;;;5.73
24740;BMP280;45234;48.148;17.128;2024-03-08T02:07:31;100273.19;;;5.68
24740;BMP280;45234;48.148;17.128;2024-03-08T02:09:58;100272.38;;;5.68
24740;BMP280;45234;48.148;17.128;2024-03-08T02:12:25;100272.88;;;5.71
24740;BMP280;45234;48.148;17.128;2024-03-08T02:14:54;100270.63;;;5.68
24740;BMP280;45234;48.148;17.128;2024-03-08T02:17:22;100281.25;;;5.73
24740;BMP280;45234;48.148;17.128;2024-03-08T02:19:49;100277.53;;;5.68
24740;BMP280;45234;48.148;17.128;2024-03-08T02:22:16;100280.25;;;5.66
24740;BMP280;45234;48.148;17.128;2024-03-08T02:24:43;100275.09;;;5.66
24740;BMP280;45234;48.148;17.128;2024-03-08T02:27:10;100271.72;;;5.66
24740;BMP280;45234;48.148;17.128;2024-03-08T02:29:39;100266.44;;;5.67
24740;BMP280;45234;48.148;17.128;2024-03-08T02:32:07;100267.91;;;5.70
24740;BMP280;45234;48.148;17.128;2024-03-08T02:34:34;100272.28;;;5.78
24740;BMP280;45234;48.148;17.128;2024-03-08T02:37:01;100272.19;;;5.87
24740;BMP280;45234;48.148;17.128;2024-03-08T02:39:28;100272.84;;;5.89
24740;BMP280;45234;48.148;17.128;2024-03-08T02:41:54;100273.81;;;5.88
24740;BMP280;45234;48.148;17.128;2024-03-08T02:44:21;100267.84;;;5.88
24740;BMP280;45234;48.148;17.128;2024-03-08T02:46:48;100270.56;;;5.86
24740;BMP280;45234;48.148;17.128;2024-03-08T02:49:17;100269.53;;;5.79
24740;BMP280;45234;48.148;17.128;2024-03-08T02:51:44;100274.19;;;5.76
24740;BMP280;45234;48.148;17.128;2024-03-08T02:54:11;100276.59;;;5.77
24740;BMP280;45234;48.148;17.128;2024-03-08T02:56:38;100275.19;;;5.75
24740;BMP280;45234;48.148;17.128;2024-03-08T02:59:04;100274.38;;;5.82
24740;BMP280;45234;48.148;17.128;2024-03-08T03:01:31;100275.50;;;5.80
24740;BMP280;45234;48.148;17.128;2024-03-08T03:03:59;100272.28;;;5.78
24740;BMP280;45234;48.148;17.128;2024-03-08T03:06:27;100271.31;;;5.79
24740;BMP280;45234;48.148;17.128;2024-03-08T03:08:53;100274.38;;;5.82
24740;BMP280;45234;48.148;17.128;2024-03-08T03:11:20;100269.03;;;5.76
24740;BMP280;45234;48.148;17.128;2024-03-08T03:13:49;100277.19;;;5.89
24740;BMP280;45234;48.148;17.128;2024-03-08T03:16:20;100267.91;;;5.96
24740;BMP280;45234;48.148;17.128;2024-03-08T03:18:47;100272.66;;;5.91
24740;BMP280;45234;48.148;17.128;2024-03-08T03:21:14;100270.84;;;5.83
24740;BMP280;45234;48.148;17.128;2024-03-08T03:23:41;100272.34;;;5.86
24740;BMP280;45234;48.148;17.128;2024-03-08T03:26:11;100268.16;;;5.93
24740;BMP280;45234;48.148;17.128;2024-03-08T03:28:39;100273.38;;;6.01
24740;BMP280;45234;48.148;17.128;2024-03-08T03:31:09;100270.06;;;5.83
24740;BMP280;45234;48.148;17.128;2024-03-08T03:33:41;100269.69;;;5.78
24740;BMP280;45234;48.148;17.128;2024-03-08T03:36:08;100267.13;;;5.78
24740;BMP280;45234;48.148;17.128;2024-03-08T03:38:36;100270.97;;;5.73
24740;BMP280;45234;48.148;17.128;2024-03-08T03:41:04;100273.03;;;5.70
24740;BMP280;45234;48.148;17.128;2024-03-08T03:43:38;100268.84;;;5.69
24740;BMP280;45234;48.148;17.128;2024-03-08T03:46:08;100260.97;;;5.70
24740;BMP280;45234;48.148;17.128;2024-03-08T03:48:37;100259.09;;;5.81
24740;BMP280;45234;48.148;17.128;2024-03-08T03:51:04;100262.13;;;5.76
24740;BMP280;45234;48.148;17.128;2024-03-08T03:53:31;100258.38;;;5.88
24740;BMP280;45234;48.148;17.128;2024-03-08T03:55:58;100257.22;;;5.91
24740;BMP280;45234;48.148;17.128;2024-03-08T03:58:26;100264.63;;;5.86
24740;BMP280;45234;48.148;17.128;2024-03-08T04:00:53;100263.13;;;5.83
24740;BMP280;45234;48.148;17.128;2024-03-08T04:03:20;100258.78;;;5.84
24740;BMP280;45234;48.148;17.128;2024-03-08T04:05:47;100257.03;;;5.84
24740;BMP280;45234;48.148;17.128;2024-03-08T04:08:14;100261.81;;;5.79
24740;BMP280;45234;48.148;17.128;2024-03-08T04:10:41;100265.22;;;5.80
24740;BMP280;45234;48.148;17.128;2024-03-08T04:13:08;100260.69;;;5.73
24740;BMP280;45234;48.148;17.128;2024-03-08T04:15:36;100261.06;;;5.61
24740;BMP280;45234;48.148;17.128;2024-03-08T04:18:04;100258.88;;;5.66
24740;BMP280;45234;48.148;17.128;2024-03-08T04:20:31;100253.84;;;5.56
24740;BMP280;45234;48.148;17.128;2024-03-08T04:22:58;100253.19;;;5.54
24740;BMP280;45234;48.148;17.128;2024-03-08T04:25:25;100261.59;;;5.64
24740;BMP280;45234;48.148;17.128;2024-03-08T04:27:53;100259.97;;;5.63
24740;BMP280;45234;48.148;17.128;2024-03-08T04:30:20;100262.19;;;5.58
24740;BMP280;45234;48.148;17.128;2024-03-08T04:32:48;100261.88;;;5.61
24740;BMP280;45234;48.148;17.128;2024-03-08T04:35:16;100262.19;;;5.58
24740;BMP280;45234;48.148;17.128;2024-03-08T04:37:43;100265.72;;;5.57
24740;BMP280;45234;48.148;17.128;2024-03-08T04:40:11;100253.03;;;5.56
24740;BMP280;45234;48.148;17.128;2024-03-08T04:42:39;100264.13;;;5.56
24740;BMP280;45234;48.148;17.128;2024-03-08T04:45:06;100273.59;;;5.56
24740;BMP280;45234;48.148;17.128;2024-03-08T04:47:35;100272.94;;;5.54
24740;BMP280;45234;48.148;17.128;2024-03-08T04:50:04;100270.88;;;5.57
24740;BMP280;45234;48.148;17.128;2024-03-08T04:52:31;100273.50;;;5.65
24740;BMP280;45234;48.148;17.128;2024-03-08T04:54:58;100278.34;;;5.68
24740;BMP280;45234;48.148;17.128;2024-03-08T04:57:25;100272.44;;;5.76
24740;BMP280;45234;48.148;17.128;2024-03-08T04:59:52;100276.97;;;5.82
24740;BMP280;45234;48.148;17.128;2024-03-08T05:02:19;100279.53;;;5.82
24740;BMP280;45234;48.148;17.128;2024-03-08T05:04:49;100275.72;;;5.86
24740;BMP280;45234;48.148;17.128;2024-03-08T05:07:16;100286.81;;;5.95
24740;BMP280;45234;48.148;17.128;2024-03-08T05:09:43;100280.88;;;5.94
24740;BMP280;45234;48.148;17.128;2024-03-08T05:12:10;100278.03;;;5.97
24740;BMP280;45234;48.148;17.128;2024-03-08T05:14:36;100278.53;;;6.01
24740;BMP280;45234;48.148;17.128;2024-03-08T05:17:03;100280.88;;;5.94
24740;BMP280;45234;48.148;17.128;2024-03-08T05:19:33;100281.75;;;6.03
24740;BMP280;45234;48.148;17.128;2024-03-08T05:22:01;100285.00;;;6.13
24740;BMP280;45234;48.148;17.128;2024-03-08T05:24:28;100288.91;;;6.17
24740;BMP280;45234;48.148;17.128;2024-03-08T05:26:57;100287.78;;;6.20
24740;BMP280;45234;48.148;17.128;2024-03-08T05:29:24;100285.53;;;6.25
24740;BMP280;45234;48.148;17.128;2024-03-08T05:31:52;100286.06;;;6.28
24740;BMP280;45234;48.148;17.128;2024-03-08T05:34:19;100287.03;;;6.35
24740;BMP280;45234;48.148;17.128;2024-03-08T05:36:48;100288.34;;;6.31
24740;BMP280;45234;48.148;17.128;2024-03-08T05:39:19;100286.78;;;6.13
24740;BMP280;45234;48.148;17.128;2024-03-08T05:41:47;100285.97;;;6.12
24740;BMP280;45234;48.148;17.128;2024-03-08T05:44:14;100291.50;;;6.25
24740;BMP280;45234;48.148;17.128;2024-03-08T05:46:44;100288.94;;;6.33
24740;BMP280;45234;48.148;17.128;2024-03-08T05:49:11;100295.50;;;6.20
24740;BMP280;45234;48.148;17.128;2024-03-08T05:51:39;100289.00;;;6.08
24740;BMP280;45234;48.148;17.128;2024-03-08T05:54:13;100289.72;;;5.92
24740;BMP280;45234;48.148;17.128;2024-03-08T05:56:43;100293.88;;;5.85
24740;BMP280;45234;48.148;17.128;2024-03-08T05:59:12;100286.75;;;5.79
24740;BMP280;45234;48.148;17.128;2024-03-08T06:01:40;100289.31;;;5.79
24740;BMP280;45234;48.148;17.128;2024-03-08T06:04:10;100283.16;;;5.71
24740;BMP280;45234;48.148;17.128;2024-03-08T06:06:41;100285.47;;;5.75
24740;BMP280;45234;48.148;17.128;2024-03-08T06:09:08;100278.34;;;5.68
24740;BMP280;45234;48.148;17.128;2024-03-08T06:11:42;100281.78;;;5.59
24740;BMP280;45234;48.148;17.128;2024-03-08T06:14:09;100283.06;;;5.55
24740;BMP280;45234;48.148;17.128;2024-03-08T06:16:36;100284.03;;;5.62
24740;BMP280;45234;48.148;17.128;2024-03-08T06:19:04;100283.88;;;5.82
24740;BMP280;45234;48.148;17.128;2024-03-08T06:21:32;100288.31;;;5.97
24740;BMP280;45234;48.148;17.128;2024-03-08T06:23:59;100289.06;;;5.90
24740;BMP280;45234;48.148;17.128;2024-03-08T06:26:26;100286.66;;;5.88
24740;BMP280;45234;48.148;17.128;2024-03-08T06:28:58;100297.03;;;5.79
24740;BMP280;45234;48.148;17.128;2024-03-08T06:31:25;100289.97;;;5.81
24740;BMP280;45234;48.148;17.128;2024-03-08T06:33:53;100291.03;;;5.96
24740;BMP280;45234;48.148;17.128;2024-03-08T06:36:23;100296.19;;;5.96
24740;BMP280;45234;48.148;17.128;2024-03-08T06:38:51;100301.34;;;5.96
24740;BMP280;45234;48.148;17.128;2024-03-08T06:41:18;100302.66;;;6.00
24740;BMP280;45234;48.148;17.128;2024-03-08T06:43:46;100307.06;;;5.90
24740;BMP280;45234;48.148;17.128;2024-03-08T06:46:18;100302.53;;;5.84
24740;BMP280;45234;48.148;17.128;2024-03-08T06:48:48;100299.09;;;5.75
24740;BMP280;45234;48.148;17.128;2024-03-08T06:51:17;100298.94;;;5.77
24740;BMP280;45234;48.148;17.128;2024-03-08T06:53:44;100294.75;;;5.76
24740;BMP280;45234;48.148;17.128;2024-03-08T06:56:11;100306.97;;;5.73
24740;BMP280;45234;48.148;17.128;2024-03-08T06:58:38;100307.00;;;5.82
24740;BMP280;45234;48.148;17.128;2024-03-08T07:01:05;100305.34;;;5.72
24740;BMP280;45234;48.148;17.128;2024-03-08T07:03:35;100301.81;;;5.73
24740;BMP280;45234;48.148;17.128;2024-03-08T07:06:02;100299.84;;;5.85
24740;BMP280;45234;48.148;17.128;2024-03-08T07:08:31;100296.16;;;5.88
24740;BMP280;45234;48.148;17.128;2024-03-08T07:10:59;100295.78;;;5.83
24740;BMP280;45234;48.148;17.128;2024-03-08T07:13:26;100304.16;;;5.85
24740;BMP280;45234;48.148;17.128;2024-03-08T07:15:55;100302.34;;;6.03
24740;BMP280;45234;48.148;17.128;2024-03-08T07:18:22;100307.56;;;6.19
24740;BMP280;45234;48.148;17.128;2024-03-08T07:20:50;100308.44;;;6.28
24740;BMP280;45234;48.148;17.128;2024-03-08T07:23:17;100299.91;;;6.35
24740;BMP280;45234;48.148;17.128;2024-03-08T07:26:03;100307.03;;;6.42
24740;BMP280;45234;48.148;17.128;2024-03-08T07:28:29;100310.59;;;6.49
24740;BMP280;45234;48.148;17.128;2024-03-08T07:30:58;100308.94;;;6.40
24740;BMP280;45234;48.148;17.128;2024-03-08T07:33:44;100313.47;;;6.46
24740;BMP280;45234;48.148;17.128;2024-03-08T07:36:11;100314.00;;;6.57
24740;BMP280;45234;48.148;17.128;2024-03-08T07:38:39;100314.50;;;6.69
24740;BMP280;45234;48.148;17.128;2024-03-08T07:41:06;100316.16;;;6.70
24740;BMP280;45234;48.148;17.128;2024-03-08T07:43:33;100312.56;;;6.63
24740;BMP280;45234;48.148;17.128;2024-03-08T07:46:00;100319.16;;;6.57
24740;BMP280;45234;48.148;17.128;2024-03-08T07:48:27;100319.97;;;6.66
24740;BMP280;45234;48.148;17.128;2024-03-08T07:50:54;100320.13;;;6.64
24740;BMP280;45234;48.148;17.128;2024-03-08T07:53:22;100323.50;;;6.57
24740;BMP280;45234;48.148;17.128;2024-03-08T07:55:51;100317.13;;;6.35
24740;BMP280;45234;48.148;17.128;2024-03-08T07:58:18;100326.56;;;6.26
24740;BMP280;45234;48.148;17.128;2024-03-08T08:00:45;100322.38;;;6.17
24740;BMP280;45234;48.148;17.128;2024-03-08T08:03:12;100316.84;;;6.12
24740;BMP280;45234;48.148;17.128;2024-03-08T08:05:40;100314.28;;;6.12
24740;BMP280;45234;48.148;17.128;2024-03-08T08:08:08;100314.94;;;6.14
24740;BMP280;45234;48.148;17.128;2024-03-08T08:10:38;100315.03;;;6.30
24740;BMP280;45234;48.148;17.128;2024-03-08T08:13:10;100318.44;;;6.47
24740;BMP280;45234;48.148;17.128;2024-03-08T08:15:38;100316.41;;;6.59
24740;BMP280;45234;48.148;17.128;2024-03-08T08:18:05;100324.81;;;6.69
24740;BMP280;45234;48.148;17.128;2024-03-08T08:20:33;100318.06;;;6.76
24740;BMP280;45234;48.148;17.128;2024-03-08T08:23:00;100318.72;;;6.86
24740;BMP280;45234;48.148;17.128;2024-03-08T08:25:27;100327.47;;;6.93
24740;BMP280;45234;48.148;17.128;2024-03-08T08:27:54;100317.16;;;7.02
24740;BMP280;45234;48.148;17.128;2024-03-08T08:30:21;100317.94;;;7.10
24740;BMP280;45234;48.148;17.128;2024-03-08T08:32:48;100321.03;;;7.06
24740;BMP280;45234;48.148;17.128;2024-03-08T08:35:16;100316.06;;;7.12
24740;BMP280;45234;48.148;17.128;2024-03-08T08:37:45;100318.97;;;7.25
24740;BMP280;45234;48.148;17.128;2024-03-08T08:40:12;100318.31;;;7.40
24740;BMP280;45234;48.148;17.128;2024-03-08T08:42:44;100316.22;;;7.51
24740;BMP280;45234;48.148;17.128;2024-03-08T08:45:15;100315.91;;;7.54
24740;BMP280;45234;48.148;17.128;2024-03-08T08:47:48;100313.97;;;7.24
24740;BMP280;45234;48.148;17.128;2024-03-08T08:50:16;100317.34;;;7.49
24740;BMP280;45234;48.148;17.128;2024-03-08T08:52:50;100312.66;;;7.52
24740;BMP280;45234;48.148;17.128;2024-03-08T08:55:17;100315.22;;;7.60
24740;BMP280;45234;48.148;17.128;2024-03-08T08:57:48;100311.69;;;7.61
24740;BMP280;45234;48.148;17.128;2024-03-08T09:00:16;100312.66;;;7.60
24740;BMP280;45234;48.148;17.128;2024-03-08T09:02:43;100312.38;;;7.55
24740;BMP280;45234;48.148;17.128;2024-03-08T09:05:10;100313.16;;;7.56
24740;BMP280;45234;48.148;17.128;2024-03-08T09:07:46;100323.63;;;7.46
24740;BMP280;45234;48.148;17.128;2024-03-08T09:10:13;100320.44;;;7.44
24740;BMP280;45234;48.148;17.128;2024-03-08T09:12:45;100319.13;;;7.40
24740;BMP280;45234;48.148;17.128;2024-03-08T09:15:12;100317.50;;;7.39
24740;BMP280;45234;48.148;17.128;2024-03-08T09:17:40;100316.53;;;7.40
24740;BMP280;45234;48.148;17.128;2024-03-08T09:20:08;100308.00;;;7.40
24740;BMP280;45234;48.148;17.128;2024-03-08T09:22:36;100311.22;;;7.42
24740;BMP280;45234;48.148;17.128;2024-03-08T09:25:03;100313.63;;;7.43
24740;BMP280;45234;48.148;17.128;2024-03-08T09:27:32;100309.75;;;7.47
24740;BMP280;45234;48.148;17.128;2024-03-08T09:30:05;100303.81;;;7.47
24740;BMP280;45234;48.148;17.128;2024-03-08T09:32:34;100298.78;;;7.53
24740;BMP280;45234;48.148;17.128;2024-03-08T09:35:02;100303.66;;;7.56
24740;BMP280;45234;48.148;17.128;2024-03-08T09:37:29;100306.25;;;7.56
24740;BMP280;45234;48.148;17.128;2024-03-08T09:39:57;100309.44;;;7.58
24740;BMP280;45234;48.148;17.128;2024-03-08T09:42:26;100301.06;;;7.56
24740;BMP280;45234;48.148;17.128;2024-03-08T09:44:52;100312.16;;;7.57
24740;BMP280;45234;48.148;17.128;2024-03-08T09:47:22;100306.53;;;7.61
24740;BMP280;45234;48.148;17.128;2024-03-08T09:49:51;100312.31;;;7.72
24740;BMP280;45234;48.148;17.128;2024-03-08T09:52:20;100311.53;;;7.79
24740;BMP280;45234;48.148;17.128;2024-03-08T09:54:47;100310.38;;;7.90
24740;BMP280;45234;48.148;17.128;2024-03-08T09:57:14;100302.88;;;8.03
24740;BMP280;45234;48.148;17.128;2024-03-08T09:59:43;100308.16;;;8.18
24740;BMP280;45234;48.148;17.128;2024-03-08T10:02:17;100306.97;;;8.28
24740;BMP280;45234;48.148;17.128;2024-03-08T10:04:44;100309.47;;;8.45
24740;BMP280;45234;48.148;17.128;2024-03-08T10:07:14;100306.34;;;8.57
24740;BMP280;45234;48.148;17.128;2024-03-08T10:09:41;100318.25;;;8.67
24740;BMP280;45234;48.148;17.128;2024-03-08T10:12:14;100317.06;;;8.77
24740;BMP280;45234;48.148;17.128;2024-03-08T10:14:42;100312.41;;;8.95
24740;BMP280;45234;48.148;17.128;2024-03-08T10:17:09;100318.09;;;9.14
24740;BMP280;45234;48.148;17.128;2024-03-08T10:19:38;100308.28;;;9.24
24740;BMP280;45234;48.148;17.128;2024-03-08T10:22:05;100314.56;;;9.30
24740;BMP280;45234;48.148;17.128;2024-03-08T10:24:34;100307.66;;;9.22
24740;BMP280;45234;48.148;17.128;2024-03-08T10:27:04;100311.03;;;9.08
24740;BMP280;45234;48.148;17.128;2024-03-08T10:29:32;100306.66;;;8.85
24740;BMP280;45234;48.148;17.128;2024-03-08T10:32:02;100314.88;;;8.66
24740;BMP280;45234;48.148;17.128;2024-03-08T10:34:29;100317.66;;;8.56
24740;BMP280;45234;48.148;17.128;2024-03-08T10:37:03;100315.91;;;8.49
24740;BMP280;45234;48.148;17.128;2024-03-08T10:39:35;100305.50;;;8.42
24740;BMP280;45234;48.148;17.128;2024-03-08T10:42:06;100307.22;;;8.50
24740;BMP280;45234;48.148;17.128;2024-03-08T10:45:08;100309.81;;;8.50
24740;BMP280;45234;48.148;17.128;2024-03-08T10:47:42;100319.97;;;8.74
24740;BMP280;45234;48.148;17.128;2024-03-08T10:50:20;100303.47;;;8.83
24740;BMP280;45234;48.148;17.128;2024-03-08T10:52:51;100306.91;;;8.99
24740;BMP280;45234;48.148;17.128;2024-03-08T10:55:19;100303.91;;;9.10
24740;BMP280;45234;48.148;17.128;2024-03-08T10:57:49;100302.41;;;9.15
24740;BMP280;45234;48.148;17.128;2024-03-08T11:00:16;100306.09;;;9.21
24740;BMP280;45234;48.148;17.128;2024-03-08T11:02:46;100306.31;;;9.11
24740;BMP280;45234;48.148;17.128;2024-03-08T11:08:16;100302.75;;;8.89
24740;BMP280;45234;48.148;17.128;2024-03-08T11:10:51;100304.31;;;8.99
24740;BMP280;45234;48.148;17.128;2024-03-08T11:13:36;100295.94;;;8.97
24740;BMP280;45234;48.148;17.128;2024-03-08T11:16:09;100300.34;;;9.11
24740;BMP280;45234;48.148;17.128;2024-03-08T11:18:37;100298.75;;;9.10
24740;BMP280;45234;48.148;17.128;2024-03-08T11:21:10;100294.19;;;9.12
24740;BMP280;45234;48.148;17.128;2024-03-08T11:23:40;100294.56;;;9.23
24740;BMP280;45234;48.148;17.128;2024-03-08T11:26:23;100292.16;;;9.22
24740;BMP280;45234;48.148;17.128;2024-03-08T11:28:50;100282.50;;;9.39
24740;BMP280;45234;48.148;17.128;2024-03-08T11:31:24;100288.47;;;9.39
24740;BMP280;45234;48.148;17.128;2024-03-08T11:33:54;100283.91;;;9.41
24740;BMP280;45234;48.148;17.128;2024-03-08T11:36:22;100281.75;;;9.45
24740;BMP280;45234;48.148;17.128;2024-03-08T11:38:51;100274.47;;;9.48
24740;BMP280;45234;48.148;17.128;2024-03-08T11:41:21;100275.63;;;9.60
24740;BMP280;45234;48.148;17.128;2024-03-08T11:43:48;100267.69;;;9.62
24740;BMP280;45234;48.148;17.128;2024-03-08T11:46:17;100270.44;;;9.60
24740;BMP280;45234;48.148;17.128;2024-03-08T11:48:47;100264.03;;;9.56
24740;BMP280;45234;48.148;17.128;2024-03-08T11:51:16;100264.91;;;9.64
24740;BMP280;45234;48.148;17.128;2024-03-08T11:53:45;100263.50;;;9.76
24740;BMP280;45234;48.148;17.128;2024-03-08T11:56:14;100263.84;;;9.73
24740;BMP280;45234;48.148;17.128;2024-03-08T11:58:47;100267.84;;;9.75
24740;BMP280;45234;48.148;17.128;2024-03-08T12:01:20;100261.00;;;9.68
24740;BMP280;45234;48.148;17.128;2024-03-08T12:03:53;100256.09;;;9.58
24740;BMP280;45234;48.148;17.128;2024-03-08T12:06:21;100260.09;;;9.60
24740;BMP280;45234;48.148;17.128;2024-03-08T12:08:48;100262.75;;;9.52
24740;BMP280;45234;48.148;17.128;2024-03-08T12:11:19;100256.69;;;9.60
24740;BMP280;45234;48.148;17.128;2024-03-08T12:13:51;100256.16;;;9.65
24740;BMP280;45234;48.148;17.128;2024-03-08T12:16:19;100250.91;;;9.73
24740;BMP280;45234;48.148;17.128;2024-03-08T12:18:50;100255.81;;;9.68
24740;BMP280;45234;48.148;17.128;2024-03-08T12:21:18;100255.19;;;9.66
24740;BMP280;45234;48.148;17.128;2024-03-08T12:23:48;100249.31;;;9.57
24740;BMP280;45234;48.148;17.128;2024-03-08T12:26:29;100250.13;;;9.57
24740;BMP280;45234;48.148;17.128;2024-03-08T12:29:21;100248.84;;;9.53
24740;BMP280;45234;48.148;17.128;2024-03-08T12:31:53;100244.84;;;9.66
24740;BMP280;45234;48.148;17.128;2024-03-08T12:34:21;100248.94;;;9.75
24740;BMP280;45234;48.148;17.128;2024-03-08T12:36:50;100243.03;;;9.81
24740;BMP280;45234;48.148;17.128;2024-03-08T12:39:22;100244.09;;;9.86
24740;BMP280;45234;48.148;17.128;2024-03-08T12:41:49;100243.22;;;9.79
24740;BMP280;45234;48.148;17.128;2024-03-08T12:44:20;100245.09;;;9.71
24740;BMP280;45234;48.148;17.128;2024-03-08T12:46:48;100237.50;;;9.69
24740;BMP280;45234;48.148;17.128;2024-03-08T12:49:19;100244.75;;;9.74
24740;BMP280;45234;48.148;17.128;2024-03-08T12:51:49;100244.38;;;9.77
24740;BMP280;45234;48.148;17.128;2024-03-08T12:54:16;100238.13;;;9.71
24740;BMP280;45234;48.148;17.128;2024-03-08T12:56:43;100236.34;;;9.72
24740;BMP280;45234;48.148;17.128;2024-03-08T12:59:10;100233.78;;;9.72
24740;BMP280;45234;48.148;17.128;2024-03-08T13:01:37;100235.19;;;9.74
24740;BMP280;45234;48.148;17.128;2024-03-08T13:04:04;100234.13;;;9.83
24740;BMP280;45234;48.148;17.128;2024-03-08T13:06:33;100226.31;;;9.98
24740;BMP280;45234;48.148;17.128;2024-03-08T13:09:00;100229.59;;;10.07
24740;BMP280;45234;48.148;17.128;2024-03-08T13:11:33;100228.97;;;10.05
24740;BMP280;45234;48.148;17.128;2024-03-08T13:14:04;100222.88;;;10.12
24740;BMP280;45234;48.148;17.128;2024-03-08T13:16:34;100223.28;;;10.09
24740;BMP280;45234;48.148;17.128;2024-03-08T13:19:02;100216.59;;;10.00
24740;BMP280;45234;48.148;17.128;2024-03-08T13:21:29;100216.03;;;10.05
24740;BMP280;45234;48.148;17.128;2024-03-08T13:23:57;100223.50;;;10.14
24740;BMP280;45234;48.148;17.128;2024-03-08T13:26:26;100216.34;;;10.16
24740;BMP280;45234;48.148;17.128;2024-03-08T13:29:00;100217.22;;;10.02
24740;BMP280;45234;48.148;17.128;2024-03-08T13:31:27;100220.63;;;9.88
24740;BMP280;45234;48.148;17.128;2024-03-08T13:33:54;100213.59;;;9.82
24740;BMP280;45234;48.148;17.128;2024-03-08T13:36:26;100216.91;;;9.76
24740;BMP280;45234;48.148;17.128;2024-03-08T13:39:01;100214.03;;;9.71
24740;BMP280;45234;48.148;17.128;2024-03-08T13:41:33;100222.69;;;9.63
24740;BMP280;45234;48.148;17.128;2024-03-08T13:43:59;100216.13;;;9.46
24740;BMP280;45234;48.148;17.128;2024-03-08T13:46:26;100209.06;;;9.25
24740;BMP280;45234;48.148;17.128;2024-03-08T13:48:54;100203.34;;;9.15
24740;BMP280;45234;48.148;17.128;2024-03-08T13:51:28;100200.47;;;9.10
24740;BMP280;45234;48.148;17.128;2024-03-08T13:53:55;100199.56;;;9.03
24740;BMP280;45234;48.148;17.128;2024-03-08T13:56:21;100188.44;;;9.02
24740;BMP280;45234;48.148;17.128;2024-03-08T13:58:48;100193.34;;;9.12
24740;BMP280;45234;48.148;17.128;2024-03-08T14:01:18;100187.38;;;9.26
24740;BMP280;45234;48.148;17.128;2024-03-08T14:03:48;100187.19;;;9.42
24740;BMP280;45234;48.148;17.128;2024-03-08T14:06:15;100186.03;;;9.59
24740;BMP280;45234;48.148;17.128;2024-03-08T14:08:49;100181.03;;;9.73